10.5F
Current conditions from King Hill
Updated every 5 minutes
 
  Thursday February 29, 2024

Observations for Westford

Westford

43° 37' 38"N, 73° 02' 30"W, Elevation 850 ft.
Eastern Time

Hourly observations for the last 72 hours

Date Time Temperature (F) Humi-
dity

(%)
Wind
(mph)
Pressure Rain (in) Sun
(W/m2)
UV ET
(in)
Air Dew 6 Hour 1 Hr 3 Hr 6 Hr Day
Alt
(in)
Sea
Level

(mb)
Max Min
29 05:00 10.5 3.6 73 WSW 7 G 13 29.94 1014.0 0.00 0 0.0 0.004
29 04:00 10.4 2.2 69 W 12 G 24 29.92 1013.1 0.00 0 0.0 0.003
29 03:00 11.0 3.4 71 W 8 G 16 29.89 1012.1 0.00 0 0.0 0.002
29 02:00 13.5 7.3 76 W 7 G 16 29.84 1010.4 0.00 0 0.0 0.001
29 01:00 17.7 12.9 55.9 17.7 81 W 9 G 23 29.77 1008.1 0.00 0 0.0 0.000
29 00:00 25.1 22.0 88 SW 9 G 24 29.64 1003.9 0.00 0 0.0 0.032
28 23:00 30.4 23.7 76 WSW 6 G 19 29.59 1002.1 0.00 0 0.0 0.031
28 22:00 32.6 26.2 77 SW 17 G 29 29.53 1000.2 0.00 0 0.0 0.030
28 21:00 34.0 31.7 91 WSW 8 G 16 29.44 996.9 0.00 0 0.0 0.029
28 20:00 38.1 34.6 87 WSW 16 G 33 29.34 993.6 0.00 0 0.0 0.028
28 19:00 55.8 52.3 57.5 55.3 88 S 13 G 24 29.19 988.6 0.00 0 0.0 0.027
28 18:00 55.6 52.1 88 S 10 G 20 29.20 988.8 0.00 0 0.0 0.026
28 17:00 56.2 52.4 87 S 10 G 29 29.23 989.8 0.00 0 0.0 0.025
28 16:00 56.5 52.4 86 S 13 G 29 29.24 990.1 0.00 5 0.0 0.023
28 15:00 57.5 52.4 83 S 9 G 24 29.26 990.9 0.00 14 0.0 0.021
28 14:00 57.1 51.7 82 S 9 G 19 29.27 991.4 0.00 62 0.0 0.019
28 13:00 55.3 50.6 56.4 50.4 84 S 10 G 24 29.35 994.0 0.00 51 0.0 0.016
28 12:00 55.9 50.5 82 S 8 G 30 29.39 995.4 0.00 76 0.0 0.013
28 11:00 55.9 50.2 81 S 9 G 26 29.38 995.0 0.00 237 0.0 0.010
28 10:00 52.2 47.2 83 S 4 G 11 29.44 996.9 0.00 49 0.0 0.009
28 09:00 53.4 47.7 81 SE 4 G 13 29.48 998.3 0.00 39 0.0 0.007
28 08:00 50.6 46.6 86 ESE 2 G 10 29.51 999.4 0.00 39 0.0 0.006
28 07:00 50.5 46.8 51.0 47.5 87 SSE 1 G 11 29.55 1000.6 0.00 9 0.0 0.006
28 06:00 49.9 46.8 89 SSE 4 G 10 29.58 1001.9 0.00 0 0.0 0.005
28 05:00 50.9 47.2 87 SSE 6 G 16 29.60 1002.5 0.00 0 0.0 0.004
28 04:00 50.1 46.7 88 SSE 9 G 19 29.61 1002.6 0.00 0 0.0 0.003
28 03:00 49.1 45.4 87 S 8 G 18 29.62 1003.1 0.00 0 0.0 0.002
28 02:00 48.4 44.4 86 S 6 G 16 29.63 1003.5 0.00 0 0.0 0.001
28 01:00 48.4 41.9 54.4 48.4 78 S 2 G 7 29.65 1004.0 0.00 0 0.0 0.000
28 00:00 51.4 41.2 68 SE 6 G 12 29.66 1004.3 0.00 0 0.0 0.103
27 23:00 52.6 40.8 64 SE 0 G 7 29.67 1004.7 0.00 0 0.0 0.101
27 22:00 53.6 40.5 61 S 3 G 15 29.70 1005.7 0.00 0 0.0 0.099
27 21:00 51.2 39.0 63 S 5 G 18 29.71 1006.1 0.00 0 0.0 0.098
27 20:00 50.4 38.3 63 SSE 2 G 8 29.72 1006.5 0.00 0 0.0 0.097
27 19:00 52.8 38.9 61.2 52.0 59 SE 3 G 10 29.73 1006.8 0.00 0 0.0 0.095
27 18:00 52.6 38.3 58 ESE 3 G 10 29.74 1007.1 0.00 0 0.0 0.094
27 17:00 54.3 37.5 53 SSE 1 G 8 29.75 1007.6 0.00 25 0.0 0.091
27 16:00 59.8 39.0 46 ESE 3 G 11 29.76 1007.7 0.00 258 0.0 0.082
27 15:00 59.8 39.5 47 SSE 8 G 14 29.77 1008.1 0.00 313 0.0 0.071
27 14:00 60.4 39.5 46 S 2 G 10 29.79 1008.9 0.00 466 0.0 0.058
27 13:00 58.2 39.7 58.6 35.7 50 S 5 G 16 29.82 1009.8 0.00 643 0.0 0.044
27 12:00 56.8 37.9 49 S 6 G 20 29.86 1011.2 0.00 613 0.0 0.029
27 11:00 54.3 36.6 51 S 8 G 24 29.89 1012.1 0.00 568 0.0 0.017
27 10:00 50.6 35.0 55 SSE 5 G 14 29.90 1012.5 0.00 461 0.0 0.009
27 09:00 44.8 33.0 63 S 5 G 13 29.91 1012.8 0.00 306 0.0 0.006
27 08:00 38.9 30.6 72 S 4 G 10 29.91 1012.9 0.00 35 0.0 0.005
27 07:00 35.8 28.3 37.0 24.2 74 SSE 4 G 11 29.92 1013.1 0.00 14 0.0 0.004
27 06:00 36.4 28.9 74 SSE 3 G 8 29.92 1013.3 0.00 0 0.0 0.003
27 05:00 35.2 28.4 76 SSE 6 G 11 29.93 1013.5 0.00 0 0.0 0.002
27 04:00 31.2 25.1 78 S 5 G 13 29.93 1013.7 0.00 0 0.0 0.001
27 03:00 29.1 23.4 79 S 3 G 7 29.94 1014.0 0.00 0 0.0 0.000
27 02:00 27.9 21.9 78 S 1 G 5 29.96 1014.6 0.00 0 0.0 0.000
27 01:00 24.2 18.9 31.8 24.1 80 S 3 G 8 29.98 1015.1 0.00 0 0.0 0.000
27 00:00 25.0 17.9 74 Calm 29.98 1015.1 0.00 0 0.0 0.037
26 23:00 25.7 18.2 73 Calm 29.98 1015.3 0.00 0 0.0 0.037
26 22:00 27.4 19.2 71 Calm 30.00 1015.9 0.00 0 0.0 0.037
26 21:00 28.6 20.4 71 Calm 30.00 1016.0 0.00 0 0.0 0.037
26 20:00 30.3 21.7 70 NNE 0 G 3 30.00 1016.1 0.00 0 0.0 0.036
26 19:00 31.8 22.1 42.2 31.7 67 WNW 0 G 1 30.01 1016.3 0.00 0 0.0 0.035
26 18:00 34.3 20.6 57 Calm 29.98 1015.4 0.00 0 0.0 0.035
26 17:00 40.0 25.1 55 W 1 G 7 29.96 1014.6 0.00 69 0.0 0.032
26 16:00 42.2 29.3 60 WSW 7 G 13 29.94 1013.9 0.00 334 0.0 0.026
26 15:00 40.8 33.2 74 W 3 G 12 29.92 1013.2 0.00 338 0.0 0.022
26 14:00 35.5 30.6 82 W 0 G 4 29.91 1012.9 0.00 65 0.0 0.021
26 13:00 36.1 29.3 39.1 31.6 76 W 0 G 3 29.89 1012.2 0.00 23 0.0 0.020
26 12:00 37.4 29.2 72 W 3 G 8 29.87 1011.6 0.00 134 0.0 0.018
26 11:00 37.7 26.6 64 S 2 G 8 29.87 1011.6 0.00 116 0.0 0.015
26 10:00 36.8 26.1 65 S 5 G 19 29.88 1011.7 0.00 104 0.0 0.011
26 09:00 34.9 25.8 69 S 9 G 16 29.87 1011.6 0.00 111 0.0 0.009
26 08:00 32.6 24.6 72 S 9 G 23 29.85 1010.9 0.00 37 0.0 0.008
26 07:00 32.1 25.4 32.4 29.2 76 S 7 G 19 29.85 1010.9 0.00 9 0.0 0.007
26 06:00 31.6 25.2 77 SSE 8 G 18 29.85 1010.8 0.00 0 0.0 0.006

Data generated by WxSolution Version 1.9.2, Build 2023.03.05.


 
 
Current Radar Loop:

Copyright © WestfordWeather.net 2007-2024. All rights reserved.